Bookmark and Share
Track history (hours):
 

Aiwamaru

Last reported at 2014-Apr-18 12:26 UTC. Time now 2014-Apr-24 04:11 UTC.
Position N 35°02' E 139°36'.

Length 64 m; draft 4.8 m.

Type: Tanker. MMSI: 431000508.

NotesDate/timePositionNaut miles runAvg speedWind from/ knotsBaromVisibWave heightAir tempDewpointWater temp
2014-Apr-18 12:26N 35°02' E 139°36'1011.3
2014-Apr-18 11:33N 35°08' E 139°45'1110.8
2014-Apr-18 10:33N 35°19' E 139°43'10 9.7
2014-Apr-18 09:34N 35°28' E 139°48'1111.2
2014-Apr-18 08:33N 35°33' E 140°00'5 4.7
2014-Apr-18 07:34N 35°32' E 140°06'0 0.0
2014-Apr-18 06:34N 35°32' E 140°06'0 0.0
2014-Apr-18 05:34N 35°32' E 140°06'0 0.0
2014-Apr-18 04:33N 35°32' E 140°06'1 0.5
2014-Apr-18 03:33N 35°33' E 140°05'7 6.8
2014-Apr-18 02:33N 35°32' E 139°57'9 9.4
2014-Apr-18 01:33N 35°30' E 139°45'0 0.0
2014-Apr-18 00:34N 35°30' E 139°45'0 0.0
2014-Apr-17 23:34N 35°30' E 139°45'0 0.0
2014-Apr-17 22:33N 35°30' E 139°45'0 0.0
2014-Apr-17 21:33N 35°30' E 139°45'0 0.0
2014-Apr-17 20:34N 35°30' E 139°45'0 0.0
2014-Apr-17 19:34N 35°30' E 139°45'0 0.0
2014-Apr-17 18:34N 35°30' E 139°45'0 0.0
2014-Apr-17 17:34N 35°30' E 139°45'0 0.0
2014-Apr-17 16:33N 35°30' E 139°45'0 0.0
2014-Apr-17 15:33N 35°30' E 139°45'0 0.0
2014-Apr-17 14:34N 35°30' E 139°45'0 0.0
2014-Apr-17 13:34N 35°30' E 139°45'0 0.0
2014-Apr-17 12:34N 35°30' E 139°45'0 0.0
2014-Apr-17 11:33N 35°30' E 139°45'0 0.0
2014-Apr-17 10:34N 35°30' E 139°45'0 0.0
2014-Apr-17 09:33N 35°30' E 139°45'0 0.0
2014-Apr-17 08:33N 35°30' E 139°45'0 0.0
2014-Apr-17 07:33N 35°30' E 139°45'0 0.0
2014-Apr-17 06:33N 35°30' E 139°45'8 8.4
2014-Apr-17 05:34N 35°30' E 139°56'2 2.4
2014-Apr-17 04:33N 35°30' E 139°59'2 1.5
2014-Apr-17 03:33N 35°28' E 139°60'0 0.2
2014-Apr-17 02:34N 35°28' E 140°00'0 0.0
2014-Apr-17 01:34N 35°28' E 140°00'0 0.0
2014-Apr-17 00:33N 35°28' E 140°00'0 0.0
2014-Apr-16 23:33N 35°28' E 140°00'1 1.2
2014-Apr-16 22:33N 35°29' E 139°59'0 0.0
2014-Apr-16 21:33N 35°29' E 139°59'0 0.0
2014-Apr-16 20:33N 35°29' E 139°59'0 0.0
2014-Apr-16 19:34N 35°29' E 139°59'0 0.0
2014-Apr-16 18:33N 35°29' E 139°59'0 0.0
2014-Apr-16 17:33N 35°29' E 139°59'0 0.1
2014-Apr-16 16:33N 35°29' E 139°59'1010.1
2014-Apr-16 15:33N 35°26' E 139°48'1010.3
2014-Apr-16 14:33N 35°15' E 139°47'1111.4
2014-Apr-16 13:33N 35°05' E 139°43'1211.8
2014-Apr-16 12:33N 34°57' E 139°31'  
2014-Apr-10 07:05N 35°53' E 140°41'0 0.0
2014-Apr-10 06:33N 35°53' E 140°41'0 0.0
2014-Apr-10 05:33N 35°53' E 140°41'0 0.4
2014-Apr-10 04:32N 35°53' E 140°41'3 2.9
2014-Apr-10 03:19N 35°57' E 140°42'0 0.0
2014-Apr-10 02:33N 35°57' E 140°42'0 0.0
2014-Apr-10 01:27N 35°57' E 140°42'3 3.3
2014-Apr-10 00:33N 35°58' E 140°45'4510.2
2014-Apr-09 20:10N 35°15' E 140°31'1214.0
2014-Apr-09 19:17N 35°06' E 140°20'1013.3
2014-Apr-09 18:33N 35°01' E 140°10'2612.5
2014-Apr-09 16:28N 34°51' E 139°40'  

Dump ship's entire track history

sailing weather and tide predictions

Aiwamaru — JD2602 — position and weather